sensor_id;sensor_type;location;lat;lon;timestamp;pressure;altitude;pressure_sealevel;temperature;humidity
3294;BME280;1659;51.470;6.770;2024-01-10T00:01:53;102922.13;;;-4.34;62.38
3294;BME280;1659;51.470;6.770;2024-01-10T00:04:19;102926.38;;;-4.35;62.42
3294;BME280;1659;51.470;6.770;2024-01-10T00:06:46;102929.72;;;-4.36;62.44
3294;BME280;1659;51.470;6.770;2024-01-10T00:09:14;102926.38;;;-4.35;62.09
3294;BME280;1659;51.470;6.770;2024-01-10T00:11:40;102926.47;;;-4.33;62.35
3294;BME280;1659;51.470;6.770;2024-01-10T00:14:07;102918.72;;;-4.33;62.33
3294;BME280;1659;51.470;6.770;2024-01-10T00:16:34;102916.94;;;-4.34;62.17
3294;BME280;1659;51.470;6.770;2024-01-10T00:19:01;102914.25;;;-4.36;62.25
3294;BME280;1659;51.470;6.770;2024-01-10T00:21:28;102915.94;;;-4.37;62.02
3294;BME280;1659;51.470;6.770;2024-01-10T00:23:54;102908.19;;;-4.37;62.00
3294;BME280;1659;51.470;6.770;2024-01-10T00:26:22;102908.97;;;-4.38;62.46
3294;BME280;1659;51.470;6.770;2024-01-10T00:28:49;102905.25;;;-4.41;62.21
3294;BME280;1659;51.470;6.770;2024-01-10T00:31:16;102898.06;;;-4.45;62.86
3294;BME280;1659;51.470;6.770;2024-01-10T00:33:43;102901.41;;;-4.46;62.80
3294;BME280;1659;51.470;6.770;2024-01-10T00:36:09;102906.56;;;-4.46;62.78
3294;BME280;1659;51.470;6.770;2024-01-10T00:38:36;102897.81;;;-4.48;63.00
3294;BME280;1659;51.470;6.770;2024-01-10T00:41:03;102908.16;;;-4.48;62.62
3294;BME280;1659;51.470;6.770;2024-01-10T00:43:31;102906.44;;;-4.48;62.64
3294;BME280;1659;51.470;6.770;2024-01-10T00:45:57;102895.38;;;-4.47;62.68
3294;BME280;1659;51.470;6.770;2024-01-10T00:48:24;102895.38;;;-4.47;62.45
3294;BME280;1659;51.470;6.770;2024-01-10T00:50:51;102898.06;;;-4.45;62.32
3294;BME280;1659;51.470;6.770;2024-01-10T00:53:17;102900.41;;;-4.48;62.80
3294;BME280;1659;51.470;6.770;2024-01-10T00:55:44;102892.53;;;-4.50;63.22
3294;BME280;1659;51.470;6.770;2024-01-10T00:58:10;102895.81;;;-4.52;63.07
3294;BME280;1659;51.470;6.770;2024-01-10T01:00:38;102893.88;;;-4.55;63.29
3294;BME280;1659;51.470;6.770;2024-01-10T01:03:06;102901.47;;;-4.57;63.53
3294;BME280;1659;51.470;6.770;2024-01-10T01:05:32;102898.78;;;-4.58;63.31
3294;BME280;1659;51.470;6.770;2024-01-10T01:07:59;102894.19;;;-4.62;63.26
3294;BME280;1659;51.470;6.770;2024-01-10T01:10:25;102888.00;;;-4.64;63.70
3294;BME280;1659;51.470;6.770;2024-01-10T01:12:52;102886.06;;;-4.67;63.51
3294;BME280;1659;51.470;6.770;2024-01-10T01:15:19;102887.75;;;-4.67;63.76
3294;BME280;1659;51.470;6.770;2024-01-10T01:17:46;102886.75;;;-4.69;63.57
3294;BME280;1659;51.470;6.770;2024-01-10T01:20:13;102884.94;;;-4.70;63.72
3294;BME280;1659;51.470;6.770;2024-01-10T01:22:40;102886.50;;;-4.72;63.74
3294;BME280;1659;51.470;6.770;2024-01-10T01:25:07;102887.28;;;-4.74;63.74
3294;BME280;1659;51.470;6.770;2024-01-10T01:27:34;102876.84;;;-4.75;63.49
3294;BME280;1659;51.470;6.770;2024-01-10T01:30:01;102892.34;;;-4.75;64.27
3294;BME280;1659;51.470;6.770;2024-01-10T01:32:27;102881.91;;;-4.77;63.79
3294;BME280;1659;51.470;6.770;2024-01-10T01:34:55;102877.50;;;-4.78;63.78
3294;BME280;1659;51.470;6.770;2024-01-10T01:37:22;102877.38;;;-4.79;63.96
3294;BME280;1659;51.470;6.770;2024-01-10T01:39:48;102875.72;;;-4.79;63.82
3294;BME280;1659;51.470;6.770;2024-01-10T01:42:16;102871.34;;;-4.80;64.04
3294;BME280;1659;51.470;6.770;2024-01-10T01:44:42;102871.22;;;-4.81;63.85
3294;BME280;1659;51.470;6.770;2024-01-10T01:47:09;102868.50;;;-4.83;64.09
3294;BME280;1659;51.470;6.770;2024-01-10T01:49:36;102867.50;;;-4.85;64.21
3294;BME280;1659;51.470;6.770;2024-01-10T01:52:05;102864.66;;;-4.88;64.38
3294;BME280;1659;51.470;6.770;2024-01-10T01:54:32;102865.47;;;-4.89;64.21
3294;BME280;1659;51.470;6.770;2024-01-10T01:56:59;102863.53;;;-4.91;64.44
3294;BME280;1659;51.470;6.770;2024-01-10T01:59:26;102861.75;;;-4.93;64.61
3294;BME280;1659;51.470;6.770;2024-01-10T02:01:54;102855.69;;;-4.93;64.61
3294;BME280;1659;51.470;6.770;2024-01-10T02:04:22;102857.25;;;-4.95;64.48
3294;BME280;1659;51.470;6.770;2024-01-10T02:06:49;102858.81;;;-4.97;64.44
3294;BME280;1659;51.470;6.770;2024-01-10T02:09:17;102857.53;;;-5.02;64.84
3294;BME280;1659;51.470;6.770;2024-01-10T02:11:44;102843.50;;;-5.06;64.99
3294;BME280;1659;51.470;6.770;2024-01-10T02:14:10;102860.69;;;-5.06;64.70
3294;BME280;1659;51.470;6.770;2024-01-10T02:16:38;102859.53;;;-5.10;64.90
3294;BME280;1659;51.470;6.770;2024-01-10T02:19:17;102863.63;;;-5.12;64.92
3294;BME280;1659;51.470;6.770;2024-01-10T02:21:44;102858.28;;;-5.15;64.90
3294;BME280;1659;51.470;6.770;2024-01-10T02:24:10;102855.56;;;-5.17;64.66
3294;BME280;1659;51.470;6.770;2024-01-10T02:26:38;102853.63;;;-5.19;65.09
3294;BME280;1659;51.470;6.770;2024-01-10T02:29:05;102852.63;;;-5.21;64.99
3294;BME280;1659;51.470;6.770;2024-01-10T02:31:32;102853.41;;;-5.22;64.93
3294;BME280;1659;51.470;6.770;2024-01-10T02:33:58;102849.69;;;-5.26;64.87
3294;BME280;1659;51.470;6.770;2024-01-10T02:36:25;102848.66;;;-5.28;64.90
3294;BME280;1659;51.470;6.770;2024-01-10T02:38:52;102854.47;;;-5.31;65.49
3294;BME280;1659;51.470;6.770;2024-01-10T02:41:18;102847.38;;;-5.33;65.26
3294;BME280;1659;51.470;6.770;2024-01-10T02:43:47;102840.19;;;-5.37;65.50
3294;BME280;1659;51.470;6.770;2024-01-10T02:46:14;102845.22;;;-5.39;65.47
3294;BME280;1659;51.470;6.770;2024-01-10T02:48:40;102844.22;;;-5.41;65.54
3294;BME280;1659;51.470;6.770;2024-01-10T02:51:07;102839.72;;;-5.43;65.68
3294;BME280;1659;51.470;6.770;2024-01-10T02:53:33;102837.91;;;-5.44;65.67
3294;BME280;1659;51.470;6.770;2024-01-10T02:56:00;102830.94;;;-5.45;65.44
3294;BME280;1659;51.470;6.770;2024-01-10T02:58:26;102836.78;;;-5.48;65.72
3294;BME280;1659;51.470;6.770;2024-01-10T03:00:56;102828.78;;;-5.51;65.64
3294;BME280;1659;51.470;6.770;2024-01-10T03:03:24;102831.25;;;-5.53;65.65
3294;BME280;1659;51.470;6.770;2024-01-10T03:05:50;102831.91;;;-5.55;65.88
3294;BME280;1659;51.470;6.770;2024-01-10T03:08:17;102831.66;;;-5.58;65.79
3294;BME280;1659;51.470;6.770;2024-01-10T03:10:43;102837.47;;;-5.61;65.91
3294;BME280;1659;51.470;6.770;2024-01-10T03:13:10;102829.75;;;-5.61;65.95
3294;BME280;1659;51.470;6.770;2024-01-10T03:15:36;102819.19;;;-5.64;66.30
3294;BME280;1659;51.470;6.770;2024-01-10T03:18:04;102825.25;;;-5.63;66.17
3294;BME280;1659;51.470;6.770;2024-01-10T03:20:31;102823.34;;;-5.66;66.54
3294;BME280;1659;51.470;6.770;2024-01-10T03:22:58;102814.56;;;-5.68;66.15
3294;BME280;1659;51.470;6.770;2024-01-10T03:25:24;102817.13;;;-5.68;66.22
3294;BME280;1659;51.470;6.770;2024-01-10T03:27:51;102812.78;;;-5.69;66.31
3294;BME280;1659;51.470;6.770;2024-01-10T03:30:17;102817.03;;;-5.70;66.13
3294;BME280;1659;51.470;6.770;2024-01-10T03:32:45;102826.28;;;-5.72;66.53
3294;BME280;1659;51.470;6.770;2024-01-10T03:35:13;102815.09;;;-5.72;66.34
3294;BME280;1659;51.470;6.770;2024-01-10T03:37:40;102822.81;;;-5.72;66.33
3294;BME280;1659;51.470;6.770;2024-01-10T03:40:07;102813.28;;;-5.73;66.53
3294;BME280;1659;51.470;6.770;2024-01-10T03:42:34;102800.41;;;-5.73;66.65
3294;BME280;1659;51.470;6.770;2024-01-10T03:45:01;102806.34;;;-5.74;66.39
3294;BME280;1659;51.470;6.770;2024-01-10T03:47:28;102800.31;;;-5.75;66.59
3294;BME280;1659;51.470;6.770;2024-01-10T03:49:55;102804.53;;;-5.75;66.59
3294;BME280;1659;51.470;6.770;2024-01-10T03:52:23;102809.56;;;-5.77;66.71
3294;BME280;1659;51.470;6.770;2024-01-10T03:54:49;102810.38;;;-5.78;66.61
3294;BME280;1659;51.470;6.770;2024-01-10T03:57:16;102817.97;;;-5.79;66.95
3294;BME280;1659;51.470;6.770;2024-01-10T03:59:42;102812.81;;;-5.79;66.65
3294;BME280;1659;51.470;6.770;2024-01-10T04:02:09;102815.13;;;-5.82;66.96
3294;BME280;1659;51.470;6.770;2024-01-10T04:04:37;102798.78;;;-5.83;66.99
3294;BME280;1659;51.470;6.770;2024-01-10T04:07:03;102796.84;;;-5.85;66.89
3294;BME280;1659;51.470;6.770;2024-01-10T04:09:31;102807.06;;;-5.87;67.24
3294;BME280;1659;51.470;6.770;2024-01-10T04:11:58;102803.56;;;-5.88;67.12
3294;BME280;1659;51.470;6.770;2024-01-10T04:14:24;102807.81;;;-5.88;66.92
3294;BME280;1659;51.470;6.770;2024-01-10T04:16:53;102814.66;;;-5.89;67.04
3294;BME280;1659;51.470;6.770;2024-01-10T04:19:20;102811.16;;;-5.89;67.16
3294;BME280;1659;51.470;6.770;2024-01-10T04:21:46;102801.53;;;-5.92;67.24
3294;BME280;1659;51.470;6.770;2024-01-10T04:24:13;102812.44;;;-5.94;67.21
3294;BME280;1659;51.470;6.770;2024-01-10T04:26:41;102809.81;;;-5.96;67.22
3294;BME280;1659;51.470;6.770;2024-01-10T04:29:07;102803.75;;;-5.96;67.36
3294;BME280;1659;51.470;6.770;2024-01-10T04:31:34;102796.69;;;-5.99;67.64
3294;BME280;1659;51.470;6.770;2024-01-10T04:34:00;102798.34;;;-5.99;67.86
3294;BME280;1659;51.470;6.770;2024-01-10T04:36:27;102788.03;;;-5.99;67.81
3294;BME280;1659;51.470;6.770;2024-01-10T04:38:53;102796.56;;;-6.00;67.79
3294;BME280;1659;51.470;6.770;2024-01-10T04:41:20;102806.72;;;-6.02;67.63
3294;BME280;1659;51.470;6.770;2024-01-10T04:43:48;102800.56;;;-6.04;68.08
3294;BME280;1659;51.470;6.770;2024-01-10T04:46:15;102796.31;;;-6.03;68.07
3294;BME280;1659;51.470;6.770;2024-01-10T04:48:42;102794.53;;;-6.04;67.93
3294;BME280;1659;51.470;6.770;2024-01-10T04:51:08;102789.13;;;-6.08;68.13
3294;BME280;1659;51.470;6.770;2024-01-10T04:53:35;102789.13;;;-6.08;68.26
3294;BME280;1659;51.470;6.770;2024-01-10T04:56:01;102795.16;;;-6.07;68.54
3294;BME280;1659;51.470;6.770;2024-01-10T04:58:28;102791.69;;;-6.08;68.47
3294;BME280;1659;51.470;6.770;2024-01-10T05:00:56;102788.31;;;-6.07;68.45
3294;BME280;1659;51.470;6.770;2024-01-10T05:03:23;102783.31;;;-6.05;68.45
3294;BME280;1659;51.470;6.770;2024-01-10T05:05:49;102788.44;;;-6.05;68.34
3294;BME280;1659;51.470;6.770;2024-01-10T05:08:16;102778.94;;;-6.06;68.16
3294;BME280;1659;51.470;6.770;2024-01-10T05:10:45;102785.75;;;-6.07;68.53
3294;BME280;1659;51.470;6.770;2024-01-10T05:13:12;102785.75;;;-6.07;68.65
3294;BME280;1659;51.470;6.770;2024-01-10T05:15:39;102785.75;;;-6.07;68.43
3294;BME280;1659;51.470;6.770;2024-01-10T05:18:07;102786.91;;;-6.03;68.74
3294;BME280;1659;51.470;6.770;2024-01-10T05:20:33;102788.97;;;-5.99;68.42
3294;BME280;1659;51.470;6.770;2024-01-10T05:23:00;102785.59;;;-5.98;68.71
3294;BME280;1659;51.470;6.770;2024-01-10T05:25:26;102796.81;;;-5.97;68.51
3294;BME280;1659;51.470;6.770;2024-01-10T05:27:54;102791.66;;;-5.97;68.61
3294;BME280;1659;51.470;6.770;2024-01-10T05:30:21;102791.66;;;-5.97;68.80
3294;BME280;1659;51.470;6.770;2024-01-10T05:32:47;102795.22;;;-5.95;68.64
3294;BME280;1659;51.470;6.770;2024-01-10T05:35:15;102800.38;;;-5.95;68.59
3294;BME280;1659;51.470;6.770;2024-01-10T05:37:42;102798.69;;;-5.95;68.66
3294;BME280;1659;51.470;6.770;2024-01-10T05:40:09;102804.84;;;-5.93;68.72
3294;BME280;1659;51.470;6.770;2024-01-10T05:42:36;102813.59;;;-5.91;68.84
3294;BME280;1659;51.470;6.770;2024-01-10T05:45:03;102808.34;;;-5.92;68.66
3294;BME280;1659;51.470;6.770;2024-01-10T05:47:31;102803.97;;;-5.93;68.72
3294;BME280;1659;51.470;6.770;2024-01-10T05:49:57;102790.06;;;-5.95;69.04
3294;BME280;1659;51.470;6.770;2024-01-10T05:52:25;102797.72;;;-5.97;68.84
3294;BME280;1659;51.470;6.770;2024-01-10T05:54:52;102795.75;;;-5.99;69.12
3294;BME280;1659;51.470;6.770;2024-01-10T05:57:19;102802.59;;;-6.00;68.93
3294;BME280;1659;51.470;6.770;2024-01-10T05:59:47;102795.66;;;-6.01;69.24
3294;BME280;1659;51.470;6.770;2024-01-10T06:02:13;102794.53;;;-6.04;68.85
3294;BME280;1659;51.470;6.770;2024-01-10T06:04:41;102793.47;;;-6.07;69.42
3294;BME280;1659;51.470;6.770;2024-01-10T06:07:08;102802.88;;;-6.07;69.32
3294;BME280;1659;51.470;6.770;2024-01-10T06:09:36;102787.44;;;-6.07;69.23
3294;BME280;1659;51.470;6.770;2024-01-10T06:12:03;102795.28;;;-6.05;69.24
3294;BME280;1659;51.470;6.770;2024-01-10T06:14:29;102804.81;;;-6.04;69.57
3294;BME280;1659;51.470;6.770;2024-01-10T06:16:56;102799.66;;;-6.04;69.26
3294;BME280;1659;51.470;6.770;2024-01-10T06:19:24;102794.41;;;-6.06;69.11
3294;BME280;1659;51.470;6.770;2024-01-10T06:21:51;102797.88;;;-6.05;69.23
3294;BME280;1659;51.470;6.770;2024-01-10T06:24:18;102797.88;;;-6.05;69.46
3294;BME280;1659;51.470;6.770;2024-01-10T06:26:47;102796.19;;;-6.05;69.53
3294;BME280;1659;51.470;6.770;2024-01-10T06:29:14;102802.13;;;-6.06;69.43
3294;BME280;1659;51.470;6.770;2024-01-10T06:31:41;102796.03;;;-6.07;69.57
3294;BME280;1659;51.470;6.770;2024-01-10T06:34:08;102807.25;;;-6.06;69.54
3294;BME280;1659;51.470;6.770;2024-01-10T06:36:34;102805.31;;;-6.09;69.57
3294;BME280;1659;51.470;6.770;2024-01-10T06:39:01;102801.84;;;-6.09;69.71
3294;BME280;1659;51.470;6.770;2024-01-10T06:41:28;102798.28;;;-6.11;69.54
3294;BME280;1659;51.470;6.770;2024-01-10T06:43:56;102807.63;;;-6.12;69.72
3294;BME280;1659;51.470;6.770;2024-01-10T06:46:22;102803.41;;;-6.11;69.67
3294;BME280;1659;51.470;6.770;2024-01-10T06:48:49;102799.16;;;-6.11;69.77
3294;BME280;1659;51.470;6.770;2024-01-10T06:51:16;102795.81;;;-6.10;69.61
3294;BME280;1659;51.470;6.770;2024-01-10T06:53:42;102792.47;;;-6.09;69.59
3294;BME280;1659;51.470;6.770;2024-01-10T06:56:09;102790.75;;;-5.98;69.62
3294;BME280;1659;51.470;6.770;2024-01-10T06:58:36;102796.13;;;-5.62;69.54
3294;BME280;1659;51.470;6.770;2024-01-10T07:01:04;102803.75;;;-5.42;69.07
3294;BME280;1659;51.470;6.770;2024-01-10T07:03:31;102796.81;;;-5.21;68.92
3294;BME280;1659;51.470;6.770;2024-01-10T07:06:00;102796.56;;;-5.02;68.55
3294;BME280;1659;51.470;6.770;2024-01-10T07:08:26;102797.28;;;-5.15;68.37
3294;BME280;1659;51.470;6.770;2024-01-10T07:10:53;102794.19;;;-5.33;69.07
3294;BME280;1659;51.470;6.770;2024-01-10T07:13:21;102794.88;;;-5.45;69.02
3294;BME280;1659;51.470;6.770;2024-01-10T07:15:47;102799.19;;;-5.56;69.03
3294;BME280;1659;51.470;6.770;2024-01-10T07:18:17;102803.50;;;-5.67;69.52
3294;BME280;1659;51.470;6.770;2024-01-10T07:20:44;102790.91;;;-5.74;69.54
3294;BME280;1659;51.470;6.770;2024-01-10T07:23:10;102787.81;;;-5.80;69.48
3294;BME280;1659;51.470;6.770;2024-01-10T07:25:37;102794.41;;;-5.84;69.85
3294;BME280;1659;51.470;6.770;2024-01-10T07:28:04;102800.22;;;-5.86;69.46
3294;BME280;1659;51.470;6.770;2024-01-10T07:30:31;102797.53;;;-5.88;69.92
3294;BME280;1659;51.470;6.770;2024-01-10T07:32:58;102806.00;;;-5.89;69.38
3294;BME280;1659;51.470;6.770;2024-01-10T07:35:26;102795.47;;;-5.92;69.64
3294;BME280;1659;51.470;6.770;2024-01-10T07:37:54;102801.41;;;-5.93;69.59
3294;BME280;1659;51.470;6.770;2024-01-10T07:40:21;102799.72;;;-5.93;69.86
3294;BME280;1659;51.470;6.770;2024-01-10T07:42:48;102800.72;;;-5.91;69.63
3294;BME280;1659;51.470;6.770;2024-01-10T07:45:14;102810.25;;;-5.90;69.46
3294;BME280;1659;51.470;6.770;2024-01-10T07:47:41;102793.94;;;-5.90;69.28
3294;BME280;1659;51.470;6.770;2024-01-10T07:50:09;102796.63;;;-5.89;69.35
3294;BME280;1659;51.470;6.770;2024-01-10T07:52:39;102799.31;;;-5.87;69.17
3294;BME280;1659;51.470;6.770;2024-01-10T07:55:06;102802.13;;;-5.84;69.19
3294;BME280;1659;51.470;6.770;2024-01-10T07:57:33;102788.38;;;-5.84;68.96
3294;BME280;1659;51.470;6.770;2024-01-10T08:00:00;102794.41;;;-5.84;69.32
3294;BME280;1659;51.470;6.770;2024-01-10T08:02:29;102803.16;;;-5.82;68.96
3294;BME280;1659;51.470;6.770;2024-01-10T08:04:59;102803.28;;;-5.80;69.20
3294;BME280;1659;51.470;6.770;2024-01-10T08:07:25;102804.31;;;-5.78;69.11
3294;BME280;1659;51.470;6.770;2024-01-10T08:09:53;102791.66;;;-5.75;68.83
3294;BME280;1659;51.470;6.770;2024-01-10T08:12:20;102797.06;;;-5.72;69.35
3294;BME280;1659;51.470;6.770;2024-01-10T08:14:47;102797.31;;;-5.69;69.07
3294;BME280;1659;51.470;6.770;2024-01-10T08:17:15;102800.16;;;-5.66;69.06
3294;BME280;1659;51.470;6.770;2024-01-10T08:19:42;102801.94;;;-5.65;69.18
3294;BME280;1659;51.470;6.770;2024-01-10T08:22:08;102805.66;;;-5.61;69.06
3294;BME280;1659;51.470;6.770;2024-01-10T08:24:35;102809.38;;;-5.58;69.33
3294;BME280;1659;51.470;6.770;2024-01-10T08:27:03;102803.56;;;-5.55;68.87
3294;BME280;1659;51.470;6.770;2024-01-10T08:29:30;102814.91;;;-5.53;69.20
3294;BME280;1659;51.470;6.770;2024-01-10T08:31:57;102807.41;;;-5.50;69.09
3294;BME280;1659;51.470;6.770;2024-01-10T08:34:24;102799.91;;;-5.47;68.92
3294;BME280;1659;51.470;6.770;2024-01-10T08:36:51;102815.19;;;-5.38;69.10
3294;BME280;1659;51.470;6.770;2024-01-10T08:39:18;102806.66;;;-5.27;69.20
3294;BME280;1659;51.470;6.770;2024-01-10T08:41:45;102807.31;;;-5.07;68.82
3294;BME280;1659;51.470;6.770;2024-01-10T08:44:13;102800.56;;;-4.83;68.94
3294;BME280;1659;51.470;6.770;2024-01-10T08:46:39;102801.53;;;-4.59;68.52
3294;BME280;1659;51.470;6.770;2024-01-10T08:49:06;102798.66;;;-4.28;68.22
3294;BME280;1659;51.470;6.770;2024-01-10T08:51:32;102797.22;;;-3.89;66.91
3294;BME280;1659;51.470;6.770;2024-01-10T08:53:59;102794.72;;;-3.52;66.80
3294;BME280;1659;51.470;6.770;2024-01-10T08:56:26;102803.16;;;-3.18;66.86
3294;BME280;1659;51.470;6.770;2024-01-10T08:58:53;102802.03;;;-2.85;66.44
3294;BME280;1659;51.470;6.770;2024-01-10T09:01:20;102797.69;;;-2.59;66.40
3294;BME280;1659;51.470;6.770;2024-01-10T09:03:48;102800.38;;;-2.32;66.09
3294;BME280;1659;51.470;6.770;2024-01-10T09:06:14;102804.47;;;-2.09;66.18
3294;BME280;1659;51.470;6.770;2024-01-10T09:08:42;102815.16;;;-1.78;66.34
3294;BME280;1659;51.470;6.770;2024-01-10T09:11:08;102814.13;;;-1.53;65.86
3294;BME280;1659;51.470;6.770;2024-01-10T09:13:35;102808.41;;;-1.34;65.06
3294;BME280;1659;51.470;6.770;2024-01-10T09:16:03;102803.09;;;-1.22;64.78
3294;BME280;1659;51.470;6.770;2024-01-10T09:18:31;102806.25;;;-1.13;63.96
3294;BME280;1659;51.470;6.770;2024-01-10T09:20:58;102812.56;;;-0.95;64.29
3294;BME280;1659;51.470;6.770;2024-01-10T09:23:25;102810.38;;;-0.73;64.33
3294;BME280;1659;51.470;6.770;2024-01-10T09:25:52;102811.13;;;-0.61;64.58
3294;BME280;1659;51.470;6.770;2024-01-10T09:28:19;102806.72;;;-0.47;64.51
3294;BME280;1659;51.470;6.770;2024-01-10T09:30:45;102802.28;;;-0.35;64.25
3294;BME280;1659;51.470;6.770;2024-01-10T09:33:12;102799.56;;;-0.22;63.83
3294;BME280;1659;51.470;6.770;2024-01-10T09:35:40;102798.88;;;-0.19;63.04
3294;BME280;1659;51.470;6.770;2024-01-10T09:38:07;102804.06;;;-0.04;63.64
3294;BME280;1659;51.470;6.770;2024-01-10T09:40:34;102795.59;;;0.15;63.89
3294;BME280;1659;51.470;6.770;2024-01-10T09:43:00;102799.34;;;0.20;63.03
3294;BME280;1659;51.470;6.770;2024-01-10T09:45:28;102800.16;;;0.19;62.04
3294;BME280;1659;51.470;6.770;2024-01-10T09:47:57;102795.69;;;0.16;60.85
3294;BME280;1659;51.470;6.770;2024-01-10T09:50:24;102799.91;;;0.14;60.08
3294;BME280;1659;51.470;6.770;2024-01-10T09:52:53;102800.53;;;0.10;59.35
3294;BME280;1659;51.470;6.770;2024-01-10T09:55:26;102806.47;;;0.08;59.13
3294;BME280;1659;51.470;6.770;2024-01-10T09:57:55;102803.22;;;0.12;58.71
3294;BME280;1659;51.470;6.770;2024-01-10T10:00:22;102803.31;;;0.13;58.73
3294;BME280;1659;51.470;6.770;2024-01-10T10:02:51;102809.13;;;0.24;59.27
3294;BME280;1659;51.470;6.770;2024-01-10T10:05:20;102802.09;;;0.38;59.01
3294;BME280;1659;51.470;6.770;2024-01-10T10:07:49;102802.53;;;0.46;58.45
3294;BME280;1659;51.470;6.770;2024-01-10T10:10:18;102801.97;;;0.51;59.71
3294;BME280;1659;51.470;6.770;2024-01-10T10:12:46;102802.97;;;0.70;60.33
3294;BME280;1659;51.470;6.770;2024-01-10T10:15:14;102801.19;;;0.85;59.52
3294;BME280;1659;51.470;6.770;2024-01-10T10:17:43;102793.06;;;0.96;60.00
3294;BME280;1659;51.470;6.770;2024-01-10T10:20:20;102795.44;;;1.07;59.48
3294;BME280;1659;51.470;6.770;2024-01-10T10:22:58;102801.88;;;1.14;59.98
3294;BME280;1659;51.470;6.770;2024-01-10T10:25:29;102796.34;;;1.24;59.47
3294;BME280;1659;51.470;6.770;2024-01-10T10:27:56;102790.63;;;1.31;59.39
3294;BME280;1659;51.470;6.770;2024-01-10T10:30:22;102792.72;;;1.39;58.60
3294;BME280;1659;51.470;6.770;2024-01-10T10:32:49;102784.22;;;1.43;59.80
3294;BME280;1659;51.470;6.770;2024-01-10T10:35:18;102788.94;;;1.50;60.13
3294;BME280;1659;51.470;6.770;2024-01-10T10:37:45;102788.59;;;1.60;59.67
3294;BME280;1659;51.470;6.770;2024-01-10T10:40:11;102789.97;;;1.70;59.45
3294;BME280;1659;51.470;6.770;2024-01-10T10:42:43;102792.66;;;1.72;61.31
3294;BME280;1659;51.470;6.770;2024-01-10T10:45:14;102789.09;;;1.87;61.30
3294;BME280;1659;51.470;6.770;2024-01-10T10:47:41;102790.56;;;2.18;60.67
3294;BME280;1659;51.470;6.770;2024-01-10T10:50:12;102788.56;;;2.49;61.60
3294;BME280;1659;51.470;6.770;2024-01-10T10:52:42;102783.97;;;2.62;61.53
3294;BME280;1659;51.470;6.770;2024-01-10T10:55:13;102778.22;;;2.89;61.32
3294;BME280;1659;51.470;6.770;2024-01-10T10:57:43;102782.94;;;3.17;61.50
3294;BME280;1659;51.470;6.770;2024-01-10T11:00:11;102771.22;;;3.48;61.69
3294;BME280;1659;51.470;6.770;2024-01-10T11:02:40;102772.78;;;3.64;61.11
3294;BME280;1659;51.470;6.770;2024-01-10T11:05:09;102774.00;;;3.72;61.55
3294;BME280;1659;51.470;6.770;2024-01-10T11:07:35;102765.50;;;3.99;61.62
3294;BME280;1659;51.470;6.770;2024-01-10T11:10:05;102765.44;;;4.20;61.25
3294;BME280;1659;51.470;6.770;2024-01-10T11:12:53;102772.66;;;4.26;60.76
3294;BME280;1659;51.470;6.770;2024-01-10T11:15:34;102773.25;;;4.41;61.00
3294;BME280;1659;51.470;6.770;2024-01-10T11:18:26;102773.00;;;4.58;60.91
3294;BME280;1659;51.470;6.770;2024-01-10T11:21:06;102768.63;;;4.57;61.08
3294;BME280;1659;51.470;6.770;2024-01-10T11:23:40;102768.78;;;4.61;60.60
3294;BME280;1659;51.470;6.770;2024-01-10T11:26:07;102767.69;;;4.79;60.59
3294;BME280;1659;51.470;6.770;2024-01-10T11:28:37;102759.50;;;4.94;61.06
3294;BME280;1659;51.470;6.770;2024-01-10T11:31:05;102758.28;;;5.08;61.08
3294;BME280;1659;51.470;6.770;2024-01-10T11:33:33;102755.09;;;5.17;60.42
3294;BME280;1659;51.470;6.770;2024-01-10T11:36:14;102751.28;;;5.33;60.16
3294;BME280;1659;51.470;6.770;2024-01-10T11:38:42;102752.66;;;5.47;60.52
3294;BME280;1659;51.470;6.770;2024-01-10T11:41:15;102748.72;;;5.60;60.43
3294;BME280;1659;51.470;6.770;2024-01-10T11:43:43;102736.75;;;5.68;60.28
3294;BME280;1659;51.470;6.770;2024-01-10T11:46:09;102750.69;;;5.67;60.04
3294;BME280;1659;51.470;6.770;2024-01-10T11:48:37;102735.78;;;5.66;59.93
3294;BME280;1659;51.470;6.770;2024-01-10T11:51:04;102736.78;;;5.70;59.76
3294;BME280;1659;51.470;6.770;2024-01-10T11:53:41;102738.22;;;5.60;58.52
3294;BME280;1659;51.470;6.770;2024-01-10T11:56:12;102731.09;;;5.56;58.92
3294;BME280;1659;51.470;6.770;2024-01-10T11:58:55;102734.53;;;5.80;58.41
3294;BME280;1659;51.470;6.770;2024-01-10T12:01:22;102736.63;;;5.92;58.24
3294;BME280;1659;51.470;6.770;2024-01-10T12:03:51;102728.06;;;5.96;58.59
3294;BME280;1659;51.470;6.770;2024-01-10T12:06:19;102728.06;;;5.96;58.32
3294;BME280;1659;51.470;6.770;2024-01-10T12:08:47;102725.34;;;6.20;58.41
3294;BME280;1659;51.470;6.770;2024-01-10T12:11:13;102724.91;;;6.35;58.25
3294;BME280;1659;51.470;6.770;2024-01-10T12:13:41;102724.13;;;6.39;56.74
3294;BME280;1659;51.470;6.770;2024-01-10T12:16:10;102729.53;;;6.44;57.09
3294;BME280;1659;51.470;6.770;2024-01-10T12:18:36;102722.88;;;6.55;56.40
3294;BME280;1659;51.470;6.770;2024-01-10T12:21:03;102725.97;;;6.72;56.66
3294;BME280;1659;51.470;6.770;2024-01-10T12:23:30;102715.19;;;6.93;55.84
3294;BME280;1659;51.470;6.770;2024-01-10T12:25:57;102716.56;;;7.12;55.64
3294;BME280;1659;51.470;6.770;2024-01-10T12:28:24;102719.84;;;7.37;56.21
3294;BME280;1659;51.470;6.770;2024-01-10T12:30:51;102717.91;;;7.65;55.59
3294;BME280;1659;51.470;6.770;2024-01-10T12:33:23;102723.91;;;7.59;55.36
3294;BME280;1659;51.470;6.770;2024-01-10T12:36:06;102727.88;;;7.77;55.10
3294;BME280;1659;51.470;6.770;2024-01-10T12:38:33;102721.63;;;7.73;54.94
3294;BME280;1659;51.470;6.770;2024-01-10T12:40:59;102715.44;;;7.71;55.83
3294;BME280;1659;51.470;6.770;2024-01-10T12:43:26;102724.06;;;8.02;55.23
3294;BME280;1659;51.470;6.770;2024-01-10T12:46:02;102723.19;;;8.01;54.79
3294;BME280;1659;51.470;6.770;2024-01-10T12:48:31;102719.09;;;8.16;55.59
3294;BME280;1659;51.470;6.770;2024-01-10T12:51:02;102711.75;;;8.40;55.07
3294;BME280;1659;51.470;6.770;2024-01-10T12:53:31;102703.19;;;8.49;55.18
3294;BME280;1659;51.470;6.770;2024-01-10T12:55:58;102710.88;;;8.81;55.18
3294;BME280;1659;51.470;6.770;2024-01-10T12:58:24;102707.97;;;9.13;54.93
3294;BME280;1659;51.470;6.770;2024-01-10T13:00:51;102711.84;;;9.35;54.78
3294;BME280;1659;51.470;6.770;2024-01-10T13:03:18;102713.97;;;9.54;55.27
3294;BME280;1659;51.470;6.770;2024-01-10T13:05:46;102712.34;;;9.64;54.98
3294;BME280;1659;51.470;6.770;2024-01-10T13:08:12;102713.97;;;9.54;55.50
3294;BME280;1659;51.470;6.770;2024-01-10T13:10:39;102711.63;;;9.73;55.56
3294;BME280;1659;51.470;6.770;2024-01-10T13:13:06;102706.59;;;9.88;55.29
3294;BME280;1659;51.470;6.770;2024-01-10T13:15:32;102714.81;;;10.10;55.46
3294;BME280;1659;51.470;6.770;2024-01-10T13:17:59;102702.72;;;10.27;55.34